Santana da Boa Vista, Brazil
Current Conditions -  °F | °C
As of 8:00 PM on Monday 22 Dec 2014 (Local Time) from SBPK Reporting Station
Few Clouds Few Clouds  
Wind Chill: 70°   Ceiling: Unl
Heat Index: 70°   Visibility: 6mi
Dew Point: 54°   Wind: 10mph
Humidity: 56%   Direction: 160°SSE
Pressure: 30.03"   Gusts: NA
Location:  30.87°S, 53.12°W
Report Text: SBPK 222200Z 16009KT 9999 FEW040 21/12 Q1017
Loading
Personal Weather Stations






























Interactive Weather Map New forecast layout! Learn more

10-Day Weather Forecast

Advertisements
Track Severe Weather on mobile